Eloten, Turkmenistan

10:57 PM TMT on September 05, 2015 (GMT +0500)
Mary Airport | | Change Station
CLOSE
Current Station
Airport
Location: Mary Airport,
Elevation: 728 ft
Nearby Weather Stations

Elev 728 ft 37.62 °N, 61.90 °E | Updated 57 minutes ago

Clear
Clear
77 °F
Feels Like 77 °F
N
7
Wind Variable Wind from NNE

Today
High -- | Low -- °F
--% Chance of Precip.
Yesterday
High -- | Low -- °F
Precip. -- in
6:23 AM 7:14 PM
Waning Gibbous, 46% visible
Pressure 30.01 in
Visibility 3.7 miles
Clouds Clear
Dew Point 54 °F
Humidity 44%
Rainfall 0.00 in
Snow Depth Not available.
UV 0 out of 12
Pollen Not available.
Air Quality Not available.
Flu Activity Not available.
METAR UTAM 051700Z 02003MPS 6000 SKC 25/12 Q1016 NOSIG
Pressure 30.01 in
Visibility 3.7 miles
Clouds Clear
Dew Point 54 °F
Humidity 44%
Rainfall 0.00 in
Snow Depth Not available.
UV 0 out of 12
Pollen Not available.
Air Quality Not available.
Flu Activity Not available.
METAR UTAM 051700Z 02003MPS 6000 SKC 25/12 Q1016 NOSIG

10-Day Weather Forecast

×

Almanac

Astronomy

Sep. 05, 2015 Rise Set
Actual Time
Civil Twilight
Nautical Twilight
Astronomical Twilight
Moon
Length of Visible Light
Length of Day
Tomorrow will be .
, % of the Moon is Illuminated

Today's Extremes

Country Highs Country Lows

Community

WunderPhotos

Upload Photos

1,852,508 photos uploaded!

WunderBlogs® & News

Nearby

Air Quality

  Air Quality AQ Index Pollutant
Not available.

Snow Depth

Station Depth Elevation

Earthquake Activity

City Distance Mag. Time & Date
Minimum magnitude displayed is 2.5.

Coastal Water Temperatures

Place Temperature

Stations

Nearby Weather Stations

Station Location Temp. Windchill Dew Point Humidity Wind Precip. Elev Updated Type